Time;durP1;ratioP1;P1;durP2;ratioP2;P2;SDS_P1;SDS_P2;PMS_P1;PMS_P2;Temp;Humidity;BMP_temperature;BMP_pressure;BME280_temperature;BME280_humidity;BME280_pressure;Samples;Min_cycle;Max_cycle;Signal;HPM_P1;HPM_P2
2023/03/30 00:02:17;;;;;;;;;;;;;;;12.52;88.24;100512.66;10381123;28;20020;-64
2023/03/30 00:07:19;;;;;;;;;;;;;;;12.33;88.79;100510.47;10380725;28;20024;-64
2023/03/30 00:12:22;;;;;;;;;;;;;;;12.60;88.48;100521.66;10379939;28;19926;-64
2023/03/30 00:17:24;;;;;;;;;;;;;;;12.48;97.26;100475.28;10379213;28;19930;-65
2023/03/30 00:22:27;;;;;;;;;;;;;;;12.43;96.99;100506.28;10380183;28;19932;-65
2023/03/30 00:27:30;;;;;;;;;;;;;;;12.29;96.72;100493.25;10379988;28;19929;-65
2023/03/30 00:32:33;;;;;;;;;;;;;;;12.42;93.59;100488.81;10368826;23;19976;-72
2023/03/30 00:37:36;;;;;;;;;;;;;;;12.57;90.56;100474.59;10379631;28;19937;-65
2023/03/30 00:42:38;;;;;;;;;;;;;;;12.20;94.21;100468.47;10379440;28;19929;-65
2023/03/30 00:47:41;;;;;;;;;;;;;;;12.50;90.24;100469.91;10376382;28;19925;-65
2023/03/30 00:52:43;;;;;;;;;;;;;;;12.34;92.61;100467.50;10360766;28;19971;-65
2023/03/30 00:57:46;;;;;;;;;;;;;;;12.67;87.95;100455.59;10361307;28;19926;-65
2023/03/30 01:02:58;;;;;;;;;;;;;;;12.43;89.97;100438.84;10378681;28;19925;-65
2023/03/30 01:08:00;;;;;;;;;;;;;;;12.63;87.20;100415.56;10360890;28;20037;-65
2023/03/30 01:13:02;;;;;;;;;;;;;;;12.37;93.08;100413.03;10359856;28;19995;-65
2023/03/30 01:18:18;;;;;;;;;;;;;;;12.60;86.65;100400.88;10377330;28;19929;-65
2023/03/30 01:23:45;;;;;;;;;;;;;;;12.76;84.98;100405.00;10359447;28;20377;-65
2023/03/30 01:28:52;;;;;;;;;;;;;;;12.53;86.29;100402.25;10359773;28;20391;-65
2023/03/30 01:34:02;;;;;;;;;;;;;;;12.53;87.20;100404.88;10359465;28;19933;-65
2023/03/30 01:39:14;;;;;;;;;;;;;;;12.51;86.16;100398.06;10359101;28;19929;-65
2023/03/30 01:44:18;;;;;;;;;;;;;;;12.83;82.94;100393.94;10358841;28;19979;-64
2023/03/30 01:49:39;;;;;;;;;;;;;;;12.61;84.47;100405.19;10359381;28;19927;-65
2023/03/30 01:54:46;;;;;;;;;;;;;;;12.85;82.76;100399.09;10376039;28;19925;-65
2023/03/30 01:59:55;;;;;;;;;;;;;;;12.45;86.07;100391.47;10358159;28;19932;-65
2023/03/30 02:04:58;;;;;;;;;;;;;;;12.79;82.90;100384.63;10357758;28;20308;-65
2023/03/30 02:10:01;;;;;;;;;;;;;;;13.05;81.53;100370.50;10358761;28;19929;-64
2023/03/30 02:15:06;;;;;;;;;;;;;;;12.88;83.96;100358.59;10358611;28;19952;-65
2023/03/30 02:20:10;;;;;;;;;;;;;;;12.91;81.66;100372.38;10357758;28;19979;-65
2023/03/30 02:25:12;;;;;;;;;;;;;;;12.64;83.01;100393.59;10375306;28;19933;-65
2023/03/30 02:30:14;;;;;;;;;;;;;;;12.50;83.94;100385.91;10374698;28;19926;-64
2023/03/30 02:35:21;;;;;;;;;;;;;;;12.55;83.14;100379.34;10375508;28;19925;-65
2023/03/30 02:40:36;;;;;;;;;;;;;;;12.53;83.77;100377.81;10375490;28;19925;-65
2023/03/30 02:46:13;;;;;;;;;;;;;;;12.54;83.24;100384.72;10373426;28;20383;-64
2023/03/30 02:51:33;;;;;;;;;;;;;;;12.53;83.90;100381.25;10332645;28;19925;-64
2023/03/30 02:56:38;;;;;;;;;;;;;;;12.67;82.76;100376.78;10374426;28;19925;-65
2023/03/30 03:01:49;;;;;;;;;;;;;;;13.09;81.36;100390.34;10373239;28;19925;-64
2023/03/30 03:06:54;;;;;;;;;;;;;;;12.97;81.95;100394.72;10357588;28;19926;-64
2023/03/30 03:11:56;;;;;;;;;;;;;;;13.05;81.53;100389.75;10377439;28;19976;-65
2023/03/30 03:16:59;;;;;;;;;;;;;;;13.04;81.57;100382.78;10381574;28;19925;-64
2023/03/30 03:22:01;;;;;;;;;;;;;;;13.19;81.46;100378.19;10381970;28;19932;-64
2023/03/30 03:27:03;;;;;;;;;;;;;;;13.45;80.75;100376.25;10381792;28;19925;-65
2023/03/30 03:32:05;;;;;;;;;;;;;;;13.41;81.05;100374.81;10381500;28;19929;-65
2023/03/30 03:37:08;;;;;;;;;;;;;;;13.41;81.73;100372.16;10381266;28;19933;-65
2023/03/30 03:42:10;;;;;;;;;;;;;;;13.44;82.04;100376.38;10380585;28;20292;-64
2023/03/30 03:47:13;;;;;;;;;;;;;;;13.34;82.68;100356.03;10381584;28;19932;-64
2023/03/30 03:52:17;;;;;;;;;;;;;;;13.14;84.00;100349.59;10380165;28;19972;-65
2023/03/30 03:57:22;;;;;;;;;;;;;;;13.01;85.93;100352.34;10380569;28;20292;-65
2023/03/30 04:02:25;;;;;;;;;;;;;;;13.15;83.05;100355.72;10380401;28;19925;-65
2023/03/30 04:07:28;;;;;;;;;;;;;;;12.99;84.02;100351.63;10380188;28;19932;-65
2023/03/30 04:12:30;;;;;;;;;;;;;;;13.05;82.35;100339.81;10363354;28;19926;-65
2023/03/30 04:17:33;;;;;;;;;;;;;;;12.77;83.61;100328.72;10361916;28;19933;-65
2023/03/30 04:22:40;;;;;;;;;;;;;;;12.36;85.51;100319.47;10338327;28;20012;-65
2023/03/30 04:27:42;;;;;;;;;;;;;;;12.39;86.32;100331.50;10338911;28;19926;-65
2023/03/30 04:32:53;;;;;;;;;;;;;;;12.64;84.00;100328.78;10342896;28;20467;-64
2023/03/30 04:37:56;;;;;;;;;;;;;;;12.53;84.97;100335.78;10378352;28;20330;-65
2023/03/30 04:43:02;;;;;;;;;;;;;;;12.58;85.66;100325.78;10378873;28;20261;-65
2023/03/30 04:48:05;;;;;;;;;;;;;;;12.80;83.11;100320.59;10379288;28;20399;-65
2023/03/30 04:53:07;;;;;;;;;;;;;;;12.58;85.66;100325.78;10379089;28;19925;-65
2023/03/30 04:58:10;;;;;;;;;;;;;;;12.61;85.60;100331.66;10378331;28;19926;-64
2023/03/30 05:03:12;;;;;;;;;;;;;;;12.47;88.98;100330.97;10378061;28;20388;-64
2023/03/30 05:08:15;;;;;;;;;;;;;;;12.62;89.05;100338.59;10377270;28;20343;-64
2023/03/30 05:13:17;;;;;;;;;;;;;;;12.65;90.76;100342.75;10378152;28;19930;-64
2023/03/30 05:18:20;;;;;;;;;;;;;;;12.92;89.83;100344.31;10376754;28;19972;-65
2023/03/30 05:23:23;;;;;;;;;;;;;;;12.79;91.10;100350.47;10377325;28;20376;-64
2023/03/30 05:28:25;;;;;;;;;;;;;;;12.22;100.00;100372.97;10377618;28;19929;-64
2023/03/30 05:33:27;;;;;;;;;;;;;;;11.80;100.00;100400.38;10376002;28;19952;-64
2023/03/30 05:38:30;;;;;;;;;;;;;;;11.73;100.00;100399.94;10376521;28;19926;-63
2023/03/30 05:43:32;;;;;;;;;;;;;;;11.78;100.00;100412.75;10377165;28;19940;-64
2023/03/30 05:48:34;;;;;;;;;;;;;;;11.80;100.00;100397.75;10376205;28;19926;-64
2023/03/30 05:53:37;;;;;;;;;;;;;;;11.85;100.00;100407.00;10334932;28;19933;-64
2023/03/30 05:58:39;;;;;;;;;;;;;;;11.95;100.00;100399.31;10353647;28;19930;-64
2023/03/30 06:03:41;;;;;;;;;;;;;;;11.80;100.00;100395.13;10372682;28;19926;-64
2023/03/30 06:08:43;;;;;;;;;;;;;;;11.86;100.00;100398.16;10376267;28;20012;-64
2023/03/30 06:13:46;;;;;;;;;;;;;;;11.87;100.00;100385.91;10365178;28;20332;-64
2023/03/30 06:18:48;;;;;;;;;;;;;;;11.90;100.00;100399.63;10335261;28;19930;-64
2023/03/30 06:23:50;;;;;;;;;;;;;;;11.99;100.00;100399.97;10343090;28;19979;-64
2023/03/30 06:28:52;;;;;;;;;;;;;;;11.92;100.00;100404.81;10374321;28;19979;-64
2023/03/30 06:33:55;;;;;;;;;;;;;;;12.07;100.00;100401.13;10373827;28;19937;-64
2023/03/30 06:38:57;;;;;;;;;;;;;;;12.01;100.00;100401.53;10375477;28;19926;-65
2023/03/30 06:43:59;;;;;;;;;;;;;;;11.90;100.00;100401.41;10375405;28;19926;-64
2023/03/30 06:49:01;;;;;;;;;;;;;;;11.89;100.00;100415.47;10386711;28;20373;-64
2023/03/30 06:54:04;;;;;;;;;;;;;;;11.80;100.00;100424.84;10388161;28;19926;-64
2023/03/30 06:59:06;;;;;;;;;;;;;;;11.91;100.00;100416.25;10388538;28;19976;-64
2023/03/30 07:04:08;;;;;;;;;;;;;;;12.11;100.00;100424.53;10387003;28;19925;-64
2023/03/30 07:09:11;;;;;;;;;;;;;;;12.06;100.00;100436.16;10370445;28;19980;-64
2023/03/30 07:14:14;;;;;;;;;;;;;;;12.17;100.00;100427.56;10387734;28;20300;-64
2023/03/30 07:19:16;;;;;;;;;;;;;;;12.30;100.00;100419.66;10378158;28;20004;-64
2023/03/30 07:24:18;;;;;;;;;;;;;;;12.34;100.00;100423.75;10370265;28;19932;-64
2023/03/30 07:29:20;;;;;;;;;;;;;;;12.37;100.00;100438.44;10387704;28;19984;-65
2023/03/30 07:34:23;;;;;;;;;;;;;;;12.61;100.00;100438.50;10388024;28;19925;-65
2023/03/30 07:39:25;;;;;;;;;;;;;;;12.94;97.89;100434.34;10387148;28;20442;-65
2023/03/30 07:44:29;;;;;;;;;;;;;;;13.55;94.63;100421.13;10387187;28;20308;-65
2023/03/30 07:49:31;;;;;;;;;;;;;;;13.25;93.43;100437.38;10387679;28;19926;-64
2023/03/30 07:54:34;;;;;;;;;;;;;;;13.64;89.98;100430.91;10387617;28;19932;-64
2023/03/30 07:59:36;;;;;;;;;;;;;;;13.96;86.43;100430.25;10381883;28;19929;-64
2023/03/30 08:04:39;;;;;;;;;;;;;;;14.60;84.94;100447.22;10381860;28;19939;-64
2023/03/30 08:09:44;;;;;;;;;;;;;;;14.56;83.21;100451.88;10382099;28;19925;-64
2023/03/30 08:14:46;;;;;;;;;;;;;;;13.71;86.79;100452.34;10381945;28;19930;-64
2023/03/30 08:19:49;;;;;;;;;;;;;;;13.67;88.34;100457.00;10381012;28;19926;-64
2023/03/30 08:24:51;;;;;;;;;;;;;;;13.46;89.78;100459.44;10363983;28;19932;-64
2023/03/30 08:29:53;;;;;;;;;;;;;;;13.56;90.59;100467.47;10379709;28;20288;-64
2023/03/30 08:34:55;;;;;;;;;;;;;;;13.09;90.96;100461.31;10380339;28;19925;-64
2023/03/30 08:39:58;;;;;;;;;;;;;;;13.15;90.51;100474.84;10380099;28;19948;-64
2023/03/30 08:45:04;;;;;;;;;;;;;;;13.19;87.71;100499.09;10379245;28;19929;-64
2023/03/30 08:50:17;;;;;;;;;;;;;;;13.37;88.10;100484.63;10379800;28;20012;-69
2023/03/30 08:55:26;;;;;;;;;;;;;;;13.65;85.86;100477.31;10362701;28;19925;-65
2023/03/30 09:00:48;;;;;;;;;;;;;;;13.41;84.62;100484.41;10379175;28;19925;-65
2023/03/30 09:05:52;;;;;;;;;;;;;;;13.50;84.26;100486.34;10360839;28;19987;-65
2023/03/30 09:11:01;;;;;;;;;;;;;;;13.36;84.91;100487.38;10360035;28;20365;-65
2023/03/30 09:16:04;;;;;;;;;;;;;;;13.52;84.36;100484.47;10360838;28;19932;-65
2023/03/30 09:21:08;;;;;;;;;;;;;;;14.77;80.46;100488.03;10378013;28;19957;-65
2023/03/30 09:26:15;;;;;;;;;;;;;;;14.95;77.86;100491.00;10361067;28;20273;-65
2023/03/30 09:31:19;;;;;;;;;;;;;;;14.04;78.19;100484.94;10360473;28;19933;-64
2023/03/30 09:36:32;;;;;;;;;;;;;;;13.60;79.85;100507.53;10376351;28;19929;-65
2023/03/30 09:41:34;;;;;;;;;;;;;;;14.34;79.52;100502.78;10374671;28;19926;-65
2023/03/30 09:46:36;;;;;;;;;;;;;;;14.21;78.14;100521.31;10376696;28;20292;-65
2023/03/30 09:51:51;;;;;;;;;;;;;;;14.00;77.02;100530.84;10376828;28;19925;-65
2023/03/30 09:56:53;;;;;;;;;;;;;;;13.89;78.38;100521.97;10358830;28;20273;-65
2023/03/30 10:02:16;;;;;;;;;;;;;;;15.10;77.02;100536.38;10357946;28;19932;-65
2023/03/30 10:07:26;;;;;;;;;;;;;;;15.48;72.43;100525.31;10359069;28;19932;-65
2023/03/30 10:12:29;;;;;;;;;;;;;;;16.51;64.97;100529.88;10354709;28;19925;-66
2023/03/30 10:17:31;;;;;;;;;;;;;;;15.59;68.35;100535.84;10375819;28;19926;-66
2023/03/30 10:22:33;;;;;;;;;;;;;;;15.15;68.52;100550.03;10374599;28;20019;-65
2023/03/30 10:27:36;;;;;;;;;;;;;;;15.20;70.18;100550.50;10373946;28;19926;-65
2023/03/30 10:32:38;;;;;;;;;;;;;;;15.47;67.80;100551.88;10373826;28;19926;-65
2023/03/30 10:37:42;;;;;;;;;;;;;;;14.92;69.96;100570.31;10373689;28;19926;-65
2023/03/30 10:42:45;;;;;;;;;;;;;;;15.29;69.66;100557.66;10375794;28;19932;-65
2023/03/30 10:48:09;;;;;;;;;;;;;;;14.95;68.52;100551.63;10372884;28;19933;-65
2023/03/30 10:53:30;;;;;;;;;;;;;;;15.05;68.54;100556.03;10374839;28;19968;-65
2023/03/30 10:58:51;;;;;;;;;;;;;;;14.74;69.76;100548.88;10376171;28;19933;-65
2023/03/30 11:03:56;;;;;;;;;;;;;;;14.88;69.15;100559.19;10376253;28;19926;-65
2023/03/30 11:09:03;;;;;;;;;;;;;;;14.77;69.95;100554.75;10358786;28;19932;-65
2023/03/30 11:14:14;;;;;;;;;;;;;;;15.32;68.14;100560.06;10359000;28;19925;-65
2023/03/30 11:19:31;;;;;;;;;;;;;;;15.97;67.14;100571.44;10358072;28;19930;-65
2023/03/30 11:24:33;;;;;;;;;;;;;;;16.11;65.67;100550.97;10357930;28;20289;-66
2023/03/30 11:29:38;;;;;;;;;;;;;;;16.99;64.17;100570.69;10373967;28;19925;-65
2023/03/30 11:34:47;;;;;;;;;;;;;;;20.11;61.35;100539.53;10380968;28;19994;-66
2023/03/30 11:39:51;;;;;;;;;;;;;;;18.34;61.31;100554.09;10365167;28;19932;-65
2023/03/30 11:44:53;;;;;;;;;;;;;;;19.91;57.80;100538.91;10364265;28;19929;-66
2023/03/30 11:50:02;;;;;;;;;;;;;;;17.58;61.52;100550.44;10364368;28;19953;-69
2023/03/30 11:55:23;;;;;;;;;;;;;;;15.88;64.57;100550.25;10364210;28;19926;-69
2023/03/30 12:00:25;;;;;;;;;;;;;;;16.24;66.41;100553.38;10380905;28;19929;-65
2023/03/30 12:05:47;;;;;;;;;;;;;;;16.21;64.78;100557.13;10381423;28;19929;-65
2023/03/30 12:10:52;;;;;;;;;;;;;;;18.42;62.61;100550.75;10380561;28;19925;-65
2023/03/30 12:15:56;;;;;;;;;;;;;;;16.19;65.09;100551.16;10380048;28;19976;-66
2023/03/30 12:21:09;;;;;;;;;;;;;;;14.78;77.99;100571.44;10380477;28;20016;-65
2023/03/30 12:26:17;;;;;;;;;;;;;;;14.51;80.38;100567.31;10379320;28;20033;-65
2023/03/30 12:31:20;;;;;;;;;;;;;;;13.54;88.80;100593.00;10379740;28;19976;-65
2023/03/30 12:36:25;;;;;;;;;;;;;;;13.21;98.41;100612.88;10378632;28;20012;-65
2023/03/30 12:41:27;;;;;;;;;;;;;;;13.05;100.00;100617.56;10377881;28;20339;-64
2023/03/30 12:46:34;;;;;;;;;;;;;;;12.43;100.00;100604.25;10366248;23;19933;-71
2023/03/30 12:51:52;;;;;;;;;;;;;;;13.19;100.00;100596.38;10321711;28;19932;-72
2023/03/30 12:56:55;;;;;;;;;;;;;;;13.23;100.00;100596.97;10321080;28;19933;-72
2023/03/30 13:02:03;;;;;;;;;;;;;;;12.90;100.00;100590.56;10337750;28;20395;-72
2023/03/30 13:07:06;;;;;;;;;;;;;;;13.09;100.00;100590.09;10337549;28;20439;-72
2023/03/30 13:12:20;;;;;;;;;;;;;;;14.07;94.90;100582.06;10337643;28;19926;-73
2023/03/30 13:17:24;;;;;;;;;;;;;;;16.35;93.69;100558.59;10321587;28;19925;-74
2023/03/30 13:22:27;;;;;;;;;;;;;;;16.95;78.14;100564.00;10337412;28;19932;-74
2023/03/30 13:27:31;;;;;;;;;;;;;;;14.98;80.38;100549.59;10320398;28;19929;-74
2023/03/30 13:32:52;;;;;;;;;;;;;;;15.16;81.40;100557.84;10338131;28;19925;-73
2023/03/30 13:38:01;;;;;;;;;;;;;;;14.44;78.86;100555.56;10337449;28;19932;-73
2023/03/30 13:43:22;;;;;;;;;;;;;;;14.94;78.70;100550.78;10337728;28;19950;-73
2023/03/30 13:48:38;;;;;;;;;;;;;;;15.09;79.11;100555.78;10322912;28;19930;-73
2023/03/30 13:53:43;;;;;;;;;;;;;;;16.03;74.17;100537.56;10293417;28;19930;-73
2023/03/30 13:58:57;;;;;;;;;;;;;;;15.45;74.97;100544.06;10278461;28;19930;-73
2023/03/30 14:04:01;;;;;;;;;;;;;;;14.54;76.21;100551.28;10295151;28;19930;-72
2023/03/30 14:09:06;;;;;;;;;;;;;;;14.18;79.64;100560.22;10295558;28;20009;-72
2023/03/30 14:14:12;;;;;;;;;;;;;;;13.78;81.24;100571.13;10295043;28;20366;-72
2023/03/30 14:19:27;;;;;;;;;;;;;;;14.75;81.75;100567.22;10278127;28;19953;-71
2023/03/30 14:24:31;;;;;;;;;;;;;;;14.68;85.19;100560.75;10277390;28;19930;-71
2023/03/30 14:29:33;;;;;;;;;;;;;;;16.86;78.81;100552.44;10294364;28;20001;-71
2023/03/30 14:34:35;;;;;;;;;;;;;;;15.24;75.95;100541.38;10261921;28;19933;-71
2023/03/30 14:39:39;;;;;;;;;;;;;;;15.52;77.05;100552.31;10293807;28;20346;-72
2023/03/30 14:44:41;;;;;;;;;;;;;;;15.02;76.64;100566.81;10284722;28;19926;-72
2023/03/30 14:49:46;;;;;;;;;;;;;;;15.07;78.84;100566.47;10329238;28;19925;-71
2023/03/30 14:54:58;;;;;;;;;;;;;;;15.54;78.44;100547.75;10308823;28;19927;-72
2023/03/30 15:00:27;;;;;;;;;;;;;;;15.54;78.11;100560.94;10279462;28;20400;-72
2023/03/30 15:05:35;;;;;;;;;;;;;;;14.98;80.51;100560.13;10291850;28;19953;-72
2023/03/30 15:10:44;;;;;;;;;;;;;;;15.02;80.28;100563.34;10340692;28;19925;-72
2023/03/30 15:15:47;;;;;;;;;;;;;;;17.39;74.51;100545.97;10324010;28;19926;-72
2023/03/30 15:20:49;;;;;;;;;;;;;;;15.68;74.45;100541.31;10322332;28;19926;-72
2023/03/30 15:25:51;;;;;;;;;;;;;;;15.77;76.01;100543.25;10340442;28;19926;-72
2023/03/30 15:30:54;;;;;;;;;;;;;;;15.47;74.93;100536.03;10339845;28;19926;-73
2023/03/30 15:35:56;;;;;;;;;;;;;;;15.46;75.05;100536.97;10330110;28;20292;-72
2023/03/30 15:41:01;;;;;;;;;;;;;;;14.73;74.82;100534.06;10322050;28;19937;-72
2023/03/30 15:46:09;;;;;;;;;;;;;;;14.89;76.00;100539.75;10321802;28;19926;-72
2023/03/30 15:51:50;;;;;;;;;;;;;;;15.05;73.86;100542.84;10304412;28;19932;-72
2023/03/30 15:56:52;;;;;;;;;;;;;;;15.38;73.37;100548.16;10199063;29;20569;-72
2023/03/30 16:01:55;;;;;;;;;;;;;;;14.85;76.09;100536.53;10286070;28;19941;-72
2023/03/30 16:06:58;;;;;;;;;;;;;;;15.02;76.99;100543.09;10299039;28;19932;-72
2023/03/30 16:12:00;;;;;;;;;;;;;;;15.18;76.41;100550.63;10297636;28;19930;-72
2023/03/30 16:17:03;;;;;;;;;;;;;;;16.02;72.10;100534.09;10298347;28;19934;-72
2023/03/30 16:22:05;;;;;;;;;;;;;;;16.18;67.28;100530.16;10302486;28;19937;-72
2023/03/30 16:27:11;;;;;;;;;;;;;;;15.09;70.28;100532.06;10322529;28;19926;-72
2023/03/30 16:32:13;;;;;;;;;;;;;;;16.80;67.74;100525.69;10320962;28;20389;-72
2023/03/30 16:37:17;;;;;;;;;;;;;;;17.89;64.30;100515.88;10338696;28;20409;-72
2023/03/30 16:42:19;;;;;;;;;;;;;;;18.08;60.24;100514.19;10338929;28;19930;-72
2023/03/30 16:47:22;;;;;;;;;;;;;;;17.92;61.28;100522.69;10336513;28;19933;-72
2023/03/30 16:52:24;;;;;;;;;;;;;;;14.96;68.76;100525.16;10338407;28;19926;-72
2023/03/30 16:57:26;;;;;;;;;;;;;;;14.94;70.40;100523.59;10337850;28;19972;-72
2023/03/30 17:02:28;;;;;;;;;;;;;;;14.99;71.01;100532.78;10337252;28;19925;-72
2023/03/30 17:07:30;;;;;;;;;;;;;;;15.15;70.21;100531.59;10338168;28;19937;-72
2023/03/30 17:12:33;;;;;;;;;;;;;;;16.16;67.01;100525.81;10336820;28;20381;-72
2023/03/30 17:17:35;;;;;;;;;;;;;;;15.77;70.10;100538.78;10334866;28;19929;-72
2023/03/30 17:22:37;;;;;;;;;;;;;;;15.13;72.00;100541.38;10337071;28;19926;-72
2023/03/30 17:27:40;;;;;;;;;;;;;;;14.69;72.09;100538.69;10336718;28;19972;-72
2023/03/30 17:32:42;;;;;;;;;;;;;;;14.61;72.79;100534.06;10319867;28;19972;-72
2023/03/30 17:37:45;;;;;;;;;;;;;;;14.60;73.43;100537.63;10334816;28;19926;-72
2023/03/30 17:42:47;;;;;;;;;;;;;;;14.64;73.87;100536.47;10336149;28;19972;-72
2023/03/30 17:47:50;;;;;;;;;;;;;;;14.59;73.47;100535.97;10335262;28;20016;-72
2023/03/30 17:52:53;;;;;;;;;;;;;;;14.39;75.47;100562.97;10336432;28;19976;-72
2023/03/30 17:57:55;;;;;;;;;;;;;;;13.10;95.90;100561.06;10307979;28;20222;-71
2023/03/30 18:02:58;;;;;;;;;;;;;;;12.75;100.00;100564.41;10318117;28;19941;-70
2023/03/30 18:08:00;;;;;;;;;;;;;;;12.77;100.00;100572.19;10335295;28;19930;-71
2023/03/30 18:13:02;;;;;;;;;;;;;;;12.75;100.00;100567.03;10335853;28;19926;-71
2023/03/30 18:18:05;;;;;;;;;;;;;;;13.00;100.00;100571.41;10332683;28;19932;-71
2023/03/30 18:23:07;;;;;;;;;;;;;;;12.87;100.00;100570.59;10302954;28;19933;-71
2023/03/30 18:28:13;;;;;;;;;;;;;;;12.76;100.00;100581.88;10327416;28;20440;-70
2023/03/30 18:33:15;;;;;;;;;;;;;;;12.59;100.00;100580.41;10277338;28;19973;-71
2023/03/30 18:38:19;;;;;;;;;;;;;;;12.72;100.00;100582.19;10326835;28;20328;-71
2023/03/30 18:43:21;;;;;;;;;;;;;;;12.60;100.00;100584.69;10334338;28;19934;-72
2023/03/30 18:48:23;;;;;;;;;;;;;;;12.41;100.00;100579.06;10309139;28;19926;-72
2023/03/30 18:53:26;;;;;;;;;;;;;;;12.37;100.00;100581.06;10289867;28;19982;-71
2023/03/30 18:58:29;;;;;;;;;;;;;;;12.26;100.00;100580.94;10316242;28;19926;-72
2023/03/30 19:03:32;;;;;;;;;;;;;;;12.15;100.00;100586.91;10332881;28;20381;-72
2023/03/30 19:08:34;;;;;;;;;;;;;;;12.23;100.00;100581.97;10333184;28;20385;-72
2023/03/30 19:13:36;;;;;;;;;;;;;;;12.02;100.00;100578.16;10334334;28;19926;-72
2023/03/30 19:18:39;;;;;;;;;;;;;;;12.20;100.00;100581.34;10334171;28;19933;-72
2023/03/30 19:23:41;;;;;;;;;;;;;;;12.25;100.00;100568.75;10333623;28;19930;-72
2023/03/30 19:28:43;;;;;;;;;;;;;;;12.59;100.00;100564.66;10333049;28;19933;-71
2023/03/30 19:33:46;;;;;;;;;;;;;;;12.34;100.00;100577.78;10316065;28;20333;-72
2023/03/30 19:38:48;;;;;;;;;;;;;;;12.35;100.00;100572.41;10333223;28;19930;-72
2023/03/30 19:43:51;;;;;;;;;;;;;;;12.12;100.00;100567.91;10332038;28;20368;-71
2023/03/30 19:48:53;;;;;;;;;;;;;;;11.82;100.00;100577.69;10333163;28;19926;-72
2023/03/30 19:53:58;;;;;;;;;;;;;;;11.98;100.00;100579.31;10334683;28;19980;-71
2023/03/30 19:59:00;;;;;;;;;;;;;;;11.99;100.00;100579.22;10323991;28;19930;-72
2023/03/30 20:04:04;;;;;;;;;;;;;;;12.21;100.00;100567.28;10340260;28;20365;-71
2023/03/30 20:09:07;;;;;;;;;;;;;;;11.97;100.00;100573.25;10339855;28;19980;-71
2023/03/30 20:14:10;;;;;;;;;;;;;;;11.83;100.00;100566.25;10339266;28;19926;-71
2023/03/30 20:19:13;;;;;;;;;;;;;;;11.69;100.00;100555.84;10338880;28;19930;-72
2023/03/30 20:24:29;;;;;;;;;;;;;;;11.44;100.00;100544.31;10338973;28;19998;-72
2023/03/30 20:29:32;;;;;;;;;;;;;;;11.14;100.00;100550.59;10339189;28;19941;-72
2023/03/30 20:34:34;;;;;;;;;;;;;;;11.20;100.00;100541.50;10338916;28;19929;-71
2023/03/30 20:39:36;;;;;;;;;;;;;;;11.10;100.00;100538.63;10338608;28;19926;-71
2023/03/30 20:44:39;;;;;;;;;;;;;;;11.08;100.00;100540.53;10337443;28;19926;-72
2023/03/30 20:49:42;;;;;;;;;;;;;;;10.87;100.00;100529.59;10338215;28;19930;-71
2023/03/30 20:54:45;;;;;;;;;;;;;;;11.03;100.00;100534.72;10312056;28;19933;-72
2023/03/30 20:59:47;;;;;;;;;;;;;;;10.71;100.00;100531.53;10298121;28;19930;-71
2023/03/30 21:04:49;;;;;;;;;;;;;;;10.71;100.00;100523.66;10297170;28;20288;-71
2023/03/30 21:09:52;;;;;;;;;;;;;;;10.53;100.00;100523.84;10320221;28;20024;-72
2023/03/30 21:14:54;;;;;;;;;;;;;;;10.41;100.00;100517.59;10320086;28;19958;-71
2023/03/30 21:19:56;;;;;;;;;;;;;;;10.16;100.00;100523.44;10335910;28;20432;-71
2023/03/30 21:24:58;;;;;;;;;;;;;;;10.44;100.00;100510.47;10337060;28;19932;-71
2023/03/30 21:30:00;;;;;;;;;;;;;;;10.44;100.00;100508.72;10336659;28;20344;-72
2023/03/30 21:35:03;;;;;;;;;;;;;;;10.30;100.00;100496.44;10337163;28;19929;-71
2023/03/30 21:40:08;;;;;;;;;;;;;;;10.18;100.00;100505.03;10335776;28;19926;-71
2023/03/30 21:45:10;;;;;;;;;;;;;;;10.30;100.00;100483.34;10335959;28;19930;-71
2023/03/30 21:50:13;;;;;;;;;;;;;;;10.28;100.00;100485.22;10336488;28;19937;-71
2023/03/30 21:55:15;;;;;;;;;;;;;;;10.29;100.00;100479.06;10318689;28;19925;-72
2023/03/30 22:00:17;;;;;;;;;;;;;;;10.56;100.00;100473.09;10335536;28;20262;-71
2023/03/30 22:05:19;;;;;;;;;;;;;;;10.36;100.00;100472.56;10335440;28;19926;-71
2023/03/30 22:10:21;;;;;;;;;;;;;;;10.40;100.00;100466.19;10334398;28;19933;-71
2023/03/30 22:15:24;;;;;;;;;;;;;;;10.47;100.00;100457.94;10334909;28;19929;-71
2023/03/30 22:20:27;;;;;;;;;;;;;;;10.51;100.00;100446.38;10335103;28;19925;-72
2023/03/30 22:25:29;;;;;;;;;;;;;;;10.37;100.00;100448.06;10317227;28;19933;-71
2023/03/30 22:30:31;;;;;;;;;;;;;;;10.45;100.00;100442.34;10334014;28;19929;-71
2023/03/30 22:35:37;;;;;;;;;;;;;;;10.36;100.00;100435.09;10335114;28;19926;-71
2023/03/30 22:40:42;;;;;;;;;;;;;;;10.43;100.00;100431.13;10334841;28;19926;-71
2023/03/30 22:45:45;;;;;;;;;;;;;;;10.32;100.00;100428.34;10355032;28;19930;-71
2023/03/30 22:50:47;;;;;;;;;;;;;;;10.26;100.00;100428.72;10335994;28;19926;-71
2023/03/30 22:55:49;;;;;;;;;;;;;;;10.31;100.00;100431.88;10334199;28;20332;-71
2023/03/30 23:00:52;;;;;;;;;;;;;;;10.47;100.00;100423.94;10334238;28;19930;-71
2023/03/30 23:05:55;;;;;;;;;;;;;;;10.40;100.00;100413.00;10316005;28;20288;-71
2023/03/30 23:11:02;;;;;;;;;;;;;;;10.30;100.00;100406.63;10334345;28;19926;-71
2023/03/30 23:16:05;;;;;;;;;;;;;;;10.09;100.00;100393.97;10316878;28;19926;-71
2023/03/30 23:21:09;;;;;;;;;;;;;;;9.90;100.00;100381.19;10333535;28;20285;-71
2023/03/30 23:26:12;;;;;;;;;;;;;;;9.92;100.00;100373.22;10333652;28;19929;-71
2023/03/30 23:31:15;;;;;;;;;;;;;;;10.00;100.00;100370.97;10340295;28;19929;-71
2023/03/30 23:36:17;;;;;;;;;;;;;;;9.98;100.00;100371.06;10341239;28;19929;-71
2023/03/30 23:41:21;;;;;;;;;;;;;;;9.95;100.00;100354.72;10340295;28;20357;-71
2023/03/30 23:46:24;;;;;;;;;;;;;;;10.08;100.00;100347.81;10340254;28;19932;-71
2023/03/30 23:51:26;;;;;;;;;;;;;;;10.02;100.00;100322.88;10340603;28;20427;-71
2023/03/30 23:56:31;;;;;;;;;;;;;;;9.91;100.00;100325.31;10340498;28;19925;-71
